Etusivu
METAR-TAF:

METAR-TAF

Lentoasemat :

Calhoun, Georgia, Yhdysvallat

Leveyspiiri: 34-27-20N, Pituuspiiri: 084-56-21W, korkeus merenpinnasta: 198 m

Tämänhetkinen sää

Tämä raportti tehtiin 29 minuuttia sitten, kello 01.15 UTC
tyyntä
Lämpötila 12°C
Kosteus 76%
Ilmanpaine 1015 hPa
Näkyvyys: 16.1 km
selkeää

METAR: KCZL 190115Z AUTO 00000KT 10SM CLR 12/08 A2998 RMK AO2

Aika: 21:44 (01:44 UTC)


TAF: puuttuu

Säähavainnot ja -ennusteet yli 4000 lentoasemalta (METAR- ja TAF-raportit).

Käytössä olevat sääasemat on merkitty karttaan keltaisilla ja punaisilla pisteillä.

Aseta hiiri pisteen päälle nähdäksesi sääaseman nimen.

Klikkaa sitten nähdäksesi säähavainnot ja -ennusteet.

Kartan vaihtaminen: klikkaa mustalla rastilla varustettuja vihreitä pisteitä, niin voit zoomata sisään; viivalla varustettua vihreää pistettä, niin voit zoomata ulos tai vihreitä nuolia, niin pääset viereisille kartoille.


METAR-TAF: